sensor_id;sensor_type;location;lat;lon;timestamp;temperature;humidity
49042;DHT22;34859;51.608;11.462;2023-05-10T00:01:18;8.50;99.90
49042;DHT22;34859;51.608;11.462;2023-05-10T00:05:00;8.60;99.90
49042;DHT22;34859;51.608;11.462;2023-05-10T00:08:55;8.70;99.90
49042;DHT22;34859;51.608;11.462;2023-05-10T00:12:37;8.60;99.90
49042;DHT22;34859;51.608;11.462;2023-05-10T00:16:30;8.50;99.90
49042;DHT22;34859;51.608;11.462;2023-05-10T00:20:27;8.40;99.90
49042;DHT22;34859;51.608;11.462;2023-05-10T00:24:26;8.40;99.90
49042;DHT22;34859;51.608;11.462;2023-05-10T00:28:11;8.50;99.90
49042;DHT22;34859;51.608;11.462;2023-05-10T00:32:12;8.50;99.90
49042;DHT22;34859;51.608;11.462;2023-05-10T00:36:01;8.50;99.90
49042;DHT22;34859;51.608;11.462;2023-05-10T00:39:53;8.40;99.90
49042;DHT22;34859;51.608;11.462;2023-05-10T00:43:37;8.30;99.90
49042;DHT22;34859;51.608;11.462;2023-05-10T00:47:20;8.20;99.90
49042;DHT22;34859;51.608;11.462;2023-05-10T00:51:08;8.40;99.90
49042;DHT22;34859;51.608;11.462;2023-05-10T00:54:42;8.20;99.90
49042;DHT22;34859;51.608;11.462;2023-05-10T00:58:24;8.00;99.90
49042;DHT22;34859;51.608;11.462;2023-05-10T01:02:00;7.70;99.90
49042;DHT22;34859;51.608;11.462;2023-05-10T01:05:33;7.80;99.90
49042;DHT22;34859;51.608;11.462;2023-05-10T01:09:12;7.80;99.90
49042;DHT22;34859;51.608;11.462;2023-05-10T01:12:51;7.80;99.90
49042;DHT22;34859;51.608;11.462;2023-05-10T01:16:24;8.00;99.90
49042;DHT22;34859;51.608;11.462;2023-05-10T01:20:01;8.00;99.90
49042;DHT22;34859;51.608;11.462;2023-05-10T01:23:31;8.00;99.90
49042;DHT22;34859;51.608;11.462;2023-05-10T01:34:16;8.00;99.90
49042;DHT22;34859;51.608;11.462;2023-05-10T01:41:40;8.00;99.90
49042;DHT22;34859;51.608;11.462;2023-05-10T01:45:30;8.00;99.90
49042;DHT22;34859;51.608;11.462;2023-05-10T01:49:09;8.10;99.90
49042;DHT22;34859;51.608;11.462;2023-05-10T01:52:47;7.90;99.90
49042;DHT22;34859;51.608;11.462;2023-05-10T01:56:14;7.90;99.90
49042;DHT22;34859;51.608;11.462;2023-05-10T01:59:45;8.00;99.90
49042;DHT22;34859;51.608;11.462;2023-05-10T02:03:20;8.00;99.90
49042;DHT22;34859;51.608;11.462;2023-05-10T02:06:50;7.90;99.90
49042;DHT22;34859;51.608;11.462;2023-05-10T02:10:20;7.90;99.90
49042;DHT22;34859;51.608;11.462;2023-05-10T02:14:01;8.00;99.90
49042;DHT22;34859;51.608;11.462;2023-05-10T02:17:24;8.00;99.90
49042;DHT22;34859;51.608;11.462;2023-05-10T02:21:11;8.00;99.90
49042;DHT22;34859;51.608;11.462;2023-05-10T02:24:48;8.00;99.90
49042;DHT22;34859;51.608;11.462;2023-05-10T02:28:23;8.00;99.90
49042;DHT22;34859;51.608;11.462;2023-05-10T02:42:43;8.30;99.90
49042;DHT22;34859;51.608;11.462;2023-05-10T02:46:35;8.20;99.90
49042;DHT22;34859;51.608;11.462;2023-05-10T02:50:25;8.20;99.90
49042;DHT22;34859;51.608;11.462;2023-05-10T02:54:13;8.30;99.90
49042;DHT22;34859;51.608;11.462;2023-05-10T02:58:02;8.30;99.90
49042;DHT22;34859;51.608;11.462;2023-05-10T03:01:53;8.40;99.90
49042;DHT22;34859;51.608;11.462;2023-05-10T03:05:39;8.50;99.90
49042;DHT22;34859;51.608;11.462;2023-05-10T03:09:11;8.50;99.90
49042;DHT22;34859;51.608;11.462;2023-05-10T03:16:52;8.50;99.90
49042;DHT22;34859;51.608;11.462;2023-05-10T03:20:38;8.50;99.90
49042;DHT22;34859;51.608;11.462;2023-05-10T03:27:47;8.60;99.90
49042;DHT22;34859;51.608;11.462;2023-05-10T03:31:17;8.70;99.90
49042;DHT22;34859;51.608;11.462;2023-05-10T03:35:24;8.70;99.90
49042;DHT22;34859;51.608;11.462;2023-05-10T03:39:25;8.80;99.90
49042;DHT22;34859;51.608;11.462;2023-05-10T03:43:10;8.80;99.90
49042;DHT22;34859;51.608;11.462;2023-05-10T03:46:50;8.90;99.90
49042;DHT22;34859;51.608;11.462;2023-05-10T03:50:21;9.10;99.90
49042;DHT22;34859;51.608;11.462;2023-05-10T04:01:00;9.40;99.90
49042;DHT22;34859;51.608;11.462;2023-05-10T04:03:28;9.50;99.90
49042;DHT22;34859;51.608;11.462;2023-05-10T04:06:00;9.50;99.90
49042;DHT22;34859;51.608;11.462;2023-05-10T04:08:27;9.60;99.90
49042;DHT22;34859;51.608;11.462;2023-05-10T04:10:54;9.70;99.90
49042;DHT22;34859;51.608;11.462;2023-05-10T04:13:39;9.80;99.90
49042;DHT22;34859;51.608;11.462;2023-05-10T04:16:25;9.90;99.90
49042;DHT22;34859;51.608;11.462;2023-05-10T04:19:11;9.90;99.90
49042;DHT22;34859;51.608;11.462;2023-05-10T04:21:56;10.00;99.90
49042;DHT22;34859;51.608;11.462;2023-05-10T04:24:42;10.10;99.90
49042;DHT22;34859;51.608;11.462;2023-05-10T04:27:08;10.10;99.90
49042;DHT22;34859;51.608;11.462;2023-05-10T04:29:34;10.20;99.90
49042;DHT22;34859;51.608;11.462;2023-05-10T04:31:59;10.30;99.90
49042;DHT22;34859;51.608;11.462;2023-05-10T04:34:25;10.30;99.90
49042;DHT22;34859;51.608;11.462;2023-05-10T04:36:50;10.40;99.90
49042;DHT22;34859;51.608;11.462;2023-05-10T04:39:17;10.50;99.90
49042;DHT22;34859;51.608;11.462;2023-05-10T04:41:42;10.60;99.90
49042;DHT22;34859;51.608;11.462;2023-05-10T04:44:26;10.70;99.90
49042;DHT22;34859;51.608;11.462;2023-05-10T04:46:52;10.70;99.90
49042;DHT22;34859;51.608;11.462;2023-05-10T04:49:37;10.80;99.90
49042;DHT22;34859;51.608;11.462;2023-05-10T04:52:03;10.80;99.90
49042;DHT22;34859;51.608;11.462;2023-05-10T04:54:29;10.90;99.90
49042;DHT22;34859;51.608;11.462;2023-05-10T04:56:54;10.90;99.90
49042;DHT22;34859;51.608;11.462;2023-05-10T04:59:20;11.10;99.90
49042;DHT22;34859;51.608;11.462;2023-05-10T05:01:47;11.00;99.90
49042;DHT22;34859;51.608;11.462;2023-05-10T05:04:13;11.10;99.90
49042;DHT22;34859;51.608;11.462;2023-05-10T05:06:39;11.10;99.90
49042;DHT22;34859;51.608;11.462;2023-05-10T05:09:10;11.10;99.90
49042;DHT22;34859;51.608;11.462;2023-05-10T05:11:36;11.10;99.90
49042;DHT22;34859;51.608;11.462;2023-05-10T05:14:02;11.20;99.90
49042;DHT22;34859;51.608;11.462;2023-05-10T05:16:30;11.30;99.90
49042;DHT22;34859;51.608;11.462;2023-05-10T05:18:59;11.40;99.90
49042;DHT22;34859;51.608;11.462;2023-05-10T05:21:25;11.40;99.90
49042;DHT22;34859;51.608;11.462;2023-05-10T05:23:52;11.40;99.90
49042;DHT22;34859;51.608;11.462;2023-05-10T05:26:17;11.50;99.90
49042;DHT22;34859;51.608;11.462;2023-05-10T05:28:43;11.50;99.90
49042;DHT22;34859;51.608;11.462;2023-05-10T05:31:08;11.50;99.90
49042;DHT22;34859;51.608;11.462;2023-05-10T05:33:34;11.60;99.90
49042;DHT22;34859;51.608;11.462;2023-05-10T05:36:01;11.70;99.90
49042;DHT22;34859;51.608;11.462;2023-05-10T05:38:28;11.80;99.90
49042;DHT22;34859;51.608;11.462;2023-05-10T05:40:54;11.90;99.90
49042;DHT22;34859;51.608;11.462;2023-05-10T05:43:20;11.90;99.90
49042;DHT22;34859;51.608;11.462;2023-05-10T05:45:49;12.00;99.90
49042;DHT22;34859;51.608;11.462;2023-05-10T05:48:14;12.10;99.90
49042;DHT22;34859;51.608;11.462;2023-05-10T05:50:41;12.20;99.90
49042;DHT22;34859;51.608;11.462;2023-05-10T05:53:07;12.30;99.90
49042;DHT22;34859;51.608;11.462;2023-05-10T05:55:34;12.40;99.90
49042;DHT22;34859;51.608;11.462;2023-05-10T05:57:59;12.50;99.90
49042;DHT22;34859;51.608;11.462;2023-05-10T06:00:25;12.80;99.90
49042;DHT22;34859;51.608;11.462;2023-05-10T06:02:51;12.90;99.90
49042;DHT22;34859;51.608;11.462;2023-05-10T06:05:17;13.00;99.90
49042;DHT22;34859;51.608;11.462;2023-05-10T06:07:42;13.10;99.90
49042;DHT22;34859;51.608;11.462;2023-05-10T06:10:08;13.30;99.90
49042;DHT22;34859;51.608;11.462;2023-05-10T06:12:34;13.30;99.90
49042;DHT22;34859;51.608;11.462;2023-05-10T06:15:00;13.40;99.90
49042;DHT22;34859;51.608;11.462;2023-05-10T06:17:27;13.50;99.90
49042;DHT22;34859;51.608;11.462;2023-05-10T06:19:54;13.50;99.90
49042;DHT22;34859;51.608;11.462;2023-05-10T06:22:19;13.50;99.90
49042;DHT22;34859;51.608;11.462;2023-05-10T06:25:07;13.60;99.90
49042;DHT22;34859;51.608;11.462;2023-05-10T06:27:53;13.70;99.90
49042;DHT22;34859;51.608;11.462;2023-05-10T06:30:22;13.80;99.90
49042;DHT22;34859;51.608;11.462;2023-05-10T06:32:52;13.90;99.90
49042;DHT22;34859;51.608;11.462;2023-05-10T06:35:18;14.00;99.90
49042;DHT22;34859;51.608;11.462;2023-05-10T06:37:44;14.10;99.90
49042;DHT22;34859;51.608;11.462;2023-05-10T06:40:10;14.20;99.90
49042;DHT22;34859;51.608;11.462;2023-05-10T06:42:37;14.30;99.90
49042;DHT22;34859;51.608;11.462;2023-05-10T06:45:03;14.30;99.90
49042;DHT22;34859;51.608;11.462;2023-05-10T06:47:29;14.30;99.90
49042;DHT22;34859;51.608;11.462;2023-05-10T06:49:55;14.30;99.90
49042;DHT22;34859;51.608;11.462;2023-05-10T06:52:21;14.40;99.90
49042;DHT22;34859;51.608;11.462;2023-05-10T06:54:46;14.50;99.90
49042;DHT22;34859;51.608;11.462;2023-05-10T06:57:12;14.60;99.90
49042;DHT22;34859;51.608;11.462;2023-05-10T06:59:38;14.70;99.90
49042;DHT22;34859;51.608;11.462;2023-05-10T07:02:03;14.70;99.90
49042;DHT22;34859;51.608;11.462;2023-05-10T07:04:29;14.70;99.90
49042;DHT22;34859;51.608;11.462;2023-05-10T07:06:55;14.70;99.90
49042;DHT22;34859;51.608;11.462;2023-05-10T07:09:21;14.70;99.90
49042;DHT22;34859;51.608;11.462;2023-05-10T07:11:46;14.80;99.90
49042;DHT22;34859;51.608;11.462;2023-05-10T07:14:12;14.80;99.90
49042;DHT22;34859;51.608;11.462;2023-05-10T07:16:38;14.80;99.90
49042;DHT22;34859;51.608;11.462;2023-05-10T07:19:04;14.80;99.90
49042;DHT22;34859;51.608;11.462;2023-05-10T07:21:30;14.90;99.90
49042;DHT22;34859;51.608;11.462;2023-05-10T07:23:57;14.90;99.90
49042;DHT22;34859;51.608;11.462;2023-05-10T07:26:23;14.90;99.90
49042;DHT22;34859;51.608;11.462;2023-05-10T07:28:49;14.90;99.90
49042;DHT22;34859;51.608;11.462;2023-05-10T07:31:15;15.00;99.90
49042;DHT22;34859;51.608;11.462;2023-05-10T07:33:40;15.20;99.90
49042;DHT22;34859;51.608;11.462;2023-05-10T07:36:07;15.30;99.90
49042;DHT22;34859;51.608;11.462;2023-05-10T07:38:32;15.40;99.90
49042;DHT22;34859;51.608;11.462;2023-05-10T07:40:58;15.50;99.90
49042;DHT22;34859;51.608;11.462;2023-05-10T07:43:24;15.60;99.90
49042;DHT22;34859;51.608;11.462;2023-05-10T07:45:50;15.70;99.90
49042;DHT22;34859;51.608;11.462;2023-05-10T07:48:19;15.90;99.90
49042;DHT22;34859;51.608;11.462;2023-05-10T07:50:44;15.90;99.90
49042;DHT22;34859;51.608;11.462;2023-05-10T07:53:10;16.00;99.90
49042;DHT22;34859;51.608;11.462;2023-05-10T07:55:40;16.00;99.90
49042;DHT22;34859;51.608;11.462;2023-05-10T07:58:06;16.10;99.90
49042;DHT22;34859;51.608;11.462;2023-05-10T08:00:32;16.10;99.90
49042;DHT22;34859;51.608;11.462;2023-05-10T08:03:09;16.10;99.90
49042;DHT22;34859;51.608;11.462;2023-05-10T08:05:34;16.10;99.90
49042;DHT22;34859;51.608;11.462;2023-05-10T08:08:00;16.00;99.90
49042;DHT22;34859;51.608;11.462;2023-05-10T08:10:29;16.00;99.90
49042;DHT22;34859;51.608;11.462;2023-05-10T08:12:55;16.10;99.90
49042;DHT22;34859;51.608;11.462;2023-05-10T08:15:20;15.90;99.90
49042;DHT22;34859;51.608;11.462;2023-05-10T08:17:51;16.00;99.90
49042;DHT22;34859;51.608;11.462;2023-05-10T08:20:17;16.00;99.90
49042;DHT22;34859;51.608;11.462;2023-05-10T08:22:47;16.10;99.90
49042;DHT22;34859;51.608;11.462;2023-05-10T08:25:13;16.20;99.90
49042;DHT22;34859;51.608;11.462;2023-05-10T08:27:38;16.10;99.90
49042;DHT22;34859;51.608;11.462;2023-05-10T08:30:05;16.20;99.90
49042;DHT22;34859;51.608;11.462;2023-05-10T08:32:30;16.10;99.90
49042;DHT22;34859;51.608;11.462;2023-05-10T08:34:56;16.20;99.90
49042;DHT22;34859;51.608;11.462;2023-05-10T08:37:23;16.20;99.90
49042;DHT22;34859;51.608;11.462;2023-05-10T08:39:48;16.30;99.90
49042;DHT22;34859;51.608;11.462;2023-05-10T08:42:15;16.50;99.90
49042;DHT22;34859;51.608;11.462;2023-05-10T08:44:42;16.40;99.90
49042;DHT22;34859;51.608;11.462;2023-05-10T08:47:10;16.40;99.90
49042;DHT22;34859;51.608;11.462;2023-05-10T08:49:54;16.40;99.90
49042;DHT22;34859;51.608;11.462;2023-05-10T08:52:20;16.40;99.90
49042;DHT22;34859;51.608;11.462;2023-05-10T08:54:47;16.50;99.90
49042;DHT22;34859;51.608;11.462;2023-05-10T08:57:13;16.40;99.90
49042;DHT22;34859;51.608;11.462;2023-05-10T08:59:39;16.60;99.90
49042;DHT22;34859;51.608;11.462;2023-05-10T09:02:05;16.60;99.90
49042;DHT22;34859;51.608;11.462;2023-05-10T09:04:31;16.50;99.90
49042;DHT22;34859;51.608;11.462;2023-05-10T09:06:57;16.50;99.90
49042;DHT22;34859;51.608;11.462;2023-05-10T09:09:23;16.40;99.90
49042;DHT22;34859;51.608;11.462;2023-05-10T09:11:49;16.40;99.90
49042;DHT22;34859;51.608;11.462;2023-05-10T09:14:15;16.50;99.90
49042;DHT22;34859;51.608;11.462;2023-05-10T09:16:40;16.50;99.90
49042;DHT22;34859;51.608;11.462;2023-05-10T09:19:07;16.30;99.90
49042;DHT22;34859;51.608;11.462;2023-05-10T09:21:35;16.20;99.90
49042;DHT22;34859;51.608;11.462;2023-05-10T09:24:04;16.20;99.90
49042;DHT22;34859;51.608;11.462;2023-05-10T09:26:30;16.30;99.90
49042;DHT22;34859;51.608;11.462;2023-05-10T09:29:00;16.30;99.90
49042;DHT22;34859;51.608;11.462;2023-05-10T09:31:45;16.30;99.90
49042;DHT22;34859;51.608;11.462;2023-05-10T09:34:15;16.30;99.90
49042;DHT22;34859;51.608;11.462;2023-05-10T09:36:59;16.30;99.90
49042;DHT22;34859;51.608;11.462;2023-05-10T09:39:30;16.40;99.90
49042;DHT22;34859;51.608;11.462;2023-05-10T09:41:57;16.30;99.90
49042;DHT22;34859;51.608;11.462;2023-05-10T09:44:23;16.30;99.90
49042;DHT22;34859;51.608;11.462;2023-05-10T09:46:49;16.50;99.90
49042;DHT22;34859;51.608;11.462;2023-05-10T09:49:15;16.50;99.90
49042;DHT22;34859;51.608;11.462;2023-05-10T09:51:40;16.40;99.90
49042;DHT22;34859;51.608;11.462;2023-05-10T09:54:14;16.30;99.90
49042;DHT22;34859;51.608;11.462;2023-05-10T09:56:40;16.30;99.90
49042;DHT22;34859;51.608;11.462;2023-05-10T09:59:07;16.40;99.90
49042;DHT22;34859;51.608;11.462;2023-05-10T10:01:33;16.40;99.90
49042;DHT22;34859;51.608;11.462;2023-05-10T10:04:01;16.30;99.90
49042;DHT22;34859;51.608;11.462;2023-05-10T10:06:29;16.10;99.90
49042;DHT22;34859;51.608;11.462;2023-05-10T10:08:56;16.10;99.90
49042;DHT22;34859;51.608;11.462;2023-05-10T10:11:22;16.10;99.90
49042;DHT22;34859;51.608;11.462;2023-05-10T10:13:48;16.20;99.90
49042;DHT22;34859;51.608;11.462;2023-05-10T10:16:14;16.10;99.90
49042;DHT22;34859;51.608;11.462;2023-05-10T10:18:40;16.20;99.90
49042;DHT22;34859;51.608;11.462;2023-05-10T10:21:10;16.30;99.90
49042;DHT22;34859;51.608;11.462;2023-05-10T10:23:37;16.30;99.90
49042;DHT22;34859;51.608;11.462;2023-05-10T10:26:03;16.30;99.90
49042;DHT22;34859;51.608;11.462;2023-05-10T10:28:39;16.30;99.90
49042;DHT22;34859;51.608;11.462;2023-05-10T10:31:31;16.20;99.90
49042;DHT22;34859;51.608;11.462;2023-05-10T10:33:58;16.20;99.90
49042;DHT22;34859;51.608;11.462;2023-05-10T10:36:24;16.20;99.90
49042;DHT22;34859;51.608;11.462;2023-05-10T10:38:56;16.20;99.90
49042;DHT22;34859;51.608;11.462;2023-05-10T10:41:28;16.30;99.90
49042;DHT22;34859;51.608;11.462;2023-05-10T10:54:51;16.30;99.90
49042;DHT22;34859;51.608;11.462;2023-05-10T10:57:19;16.40;99.90
49042;DHT22;34859;51.608;11.462;2023-05-10T10:59:47;16.40;99.90
49042;DHT22;34859;51.608;11.462;2023-05-10T11:04:57;16.60;99.90
49042;DHT22;34859;51.608;11.462;2023-05-10T11:07:22;16.70;99.90
49042;DHT22;34859;51.608;11.462;2023-05-10T11:09:48;16.70;99.90
49042;DHT22;34859;51.608;11.462;2023-05-10T11:12:33;16.80;99.90
49042;DHT22;34859;51.608;11.462;2023-05-10T11:14:58;16.70;99.90
49042;DHT22;34859;51.608;11.462;2023-05-10T11:17:27;16.60;99.90
49042;DHT22;34859;51.608;11.462;2023-05-10T11:20:06;16.70;99.90
49042;DHT22;34859;51.608;11.462;2023-05-10T11:22:48;16.70;99.90
49042;DHT22;34859;51.608;11.462;2023-05-10T11:25:14;16.80;99.90
49042;DHT22;34859;51.608;11.462;2023-05-10T11:27:40;16.70;99.90
49042;DHT22;34859;51.608;11.462;2023-05-10T11:30:07;16.70;99.90
49042;DHT22;34859;51.608;11.462;2023-05-10T11:32:33;16.70;99.90
49042;DHT22;34859;51.608;11.462;2023-05-10T11:34:58;16.60;99.90
49042;DHT22;34859;51.608;11.462;2023-05-10T11:37:27;16.60;99.90
49042;DHT22;34859;51.608;11.462;2023-05-10T11:39:54;16.50;99.90
49042;DHT22;34859;51.608;11.462;2023-05-10T11:42:20;16.50;99.90
49042;DHT22;34859;51.608;11.462;2023-05-10T11:44:46;16.50;99.90
49042;DHT22;34859;51.608;11.462;2023-05-10T11:47:12;16.50;99.90
49042;DHT22;34859;51.608;11.462;2023-05-10T11:49:38;16.50;99.90
49042;DHT22;34859;51.608;11.462;2023-05-10T11:52:07;16.40;99.90
49042;DHT22;34859;51.608;11.462;2023-05-10T11:54:33;16.40;99.90
49042;DHT22;34859;51.608;11.462;2023-05-10T11:57:00;16.30;99.90
49042;DHT22;34859;51.608;11.462;2023-05-10T11:59:27;16.30;99.90
49042;DHT22;34859;51.608;11.462;2023-05-10T12:01:53;16.30;99.90
49042;DHT22;34859;51.608;11.462;2023-05-10T12:04:18;16.30;99.90
49042;DHT22;34859;51.608;11.462;2023-05-10T12:06:44;16.20;99.90
49042;DHT22;34859;51.608;11.462;2023-05-10T12:09:11;16.20;99.90
49042;DHT22;34859;51.608;11.462;2023-05-10T12:11:38;16.30;99.90
49042;DHT22;34859;51.608;11.462;2023-05-10T12:14:04;16.30;99.90
49042;DHT22;34859;51.608;11.462;2023-05-10T12:16:30;16.30;99.90
49042;DHT22;34859;51.608;11.462;2023-05-10T12:18:57;16.30;99.90
49042;DHT22;34859;51.608;11.462;2023-05-10T12:21:23;16.40;99.90
49042;DHT22;34859;51.608;11.462;2023-05-10T12:23:53;16.40;99.90
49042;DHT22;34859;51.608;11.462;2023-05-10T12:26:22;16.50;99.90
49042;DHT22;34859;51.608;11.462;2023-05-10T12:28:48;16.50;99.90
49042;DHT22;34859;51.608;11.462;2023-05-10T12:31:14;16.70;99.90
49042;DHT22;34859;51.608;11.462;2023-05-10T12:33:40;16.70;99.90
49042;DHT22;34859;51.608;11.462;2023-05-10T12:36:10;17.00;99.90
49042;DHT22;34859;51.608;11.462;2023-05-10T12:41:07;17.20;99.90
49042;DHT22;34859;51.608;11.462;2023-05-10T12:43:33;17.40;99.90
49042;DHT22;34859;51.608;11.462;2023-05-10T12:46:18;17.60;99.90
49042;DHT22;34859;51.608;11.462;2023-05-10T12:49:04;17.80;99.90
49042;DHT22;34859;51.608;11.462;2023-05-10T12:51:50;17.90;99.90
49042;DHT22;34859;51.608;11.462;2023-05-10T12:54:35;18.10;99.90
49042;DHT22;34859;51.608;11.462;2023-05-10T12:57:01;18.30;99.90
49042;DHT22;34859;51.608;11.462;2023-05-10T12:59:27;18.50;99.90
49042;DHT22;34859;51.608;11.462;2023-05-10T13:01:53;18.50;99.90
49042;DHT22;34859;51.608;11.462;2023-05-10T13:04:18;18.50;99.90
49042;DHT22;34859;51.608;11.462;2023-05-10T13:06:44;18.30;99.90
49042;DHT22;34859;51.608;11.462;2023-05-10T13:09:10;18.30;99.90
49042;DHT22;34859;51.608;11.462;2023-05-10T13:11:36;18.50;99.90
49042;DHT22;34859;51.608;11.462;2023-05-10T13:14:02;18.50;99.90
49042;DHT22;34859;51.608;11.462;2023-05-10T13:16:28;18.50;99.90
49042;DHT22;34859;51.608;11.462;2023-05-10T13:18:54;18.20;99.90
49042;DHT22;34859;51.608;11.462;2023-05-10T13:21:19;18.10;99.90
49042;DHT22;34859;51.608;11.462;2023-05-10T13:23:47;18.00;99.90
49042;DHT22;34859;51.608;11.462;2023-05-10T13:26:12;18.10;99.90
49042;DHT22;34859;51.608;11.462;2023-05-10T13:28:38;18.00;99.90
49042;DHT22;34859;51.608;11.462;2023-05-10T13:31:04;18.00;99.90
49042;DHT22;34859;51.608;11.462;2023-05-10T13:33:30;17.90;99.90
49042;DHT22;34859;51.608;11.462;2023-05-10T13:35:57;17.80;99.90
49042;DHT22;34859;51.608;11.462;2023-05-10T13:38:22;17.50;99.90
49042;DHT22;34859;51.608;11.462;2023-05-10T13:40:48;16.90;99.90
49042;DHT22;34859;51.608;11.462;2023-05-10T13:43:19;16.70;99.90
49042;DHT22;34859;51.608;11.462;2023-05-10T13:45:45;16.60;99.90
49042;DHT22;34859;51.608;11.462;2023-05-10T13:48:11;16.60;99.90
49042;DHT22;34859;51.608;11.462;2023-05-10T13:50:37;16.60;99.90
49042;DHT22;34859;51.608;11.462;2023-05-10T13:53:02;16.90;99.90
49042;DHT22;34859;51.608;11.462;2023-05-10T13:55:30;17.00;99.90
49042;DHT22;34859;51.608;11.462;2023-05-10T13:57:57;16.90;99.90
49042;DHT22;34859;51.608;11.462;2023-05-10T14:00:23;16.90;99.90
49042;DHT22;34859;51.608;11.462;2023-05-10T14:02:48;16.80;99.90
49042;DHT22;34859;51.608;11.462;2023-05-10T14:05:14;16.60;99.90
49042;DHT22;34859;51.608;11.462;2023-05-10T14:07:40;16.50;99.90
49042;DHT22;34859;51.608;11.462;2023-05-10T14:10:07;16.40;99.90
49042;DHT22;34859;51.608;11.462;2023-05-10T14:12:32;16.30;99.90
49042;DHT22;34859;51.608;11.462;2023-05-10T14:14:58;16.20;99.90
49042;DHT22;34859;51.608;11.462;2023-05-10T14:17:23;16.10;99.90
49042;DHT22;34859;51.608;11.462;2023-05-10T14:19:49;15.80;99.90
49042;DHT22;34859;51.608;11.462;2023-05-10T14:22:15;15.70;99.90
49042;DHT22;34859;51.608;11.462;2023-05-10T14:24:40;15.60;99.90
49042;DHT22;34859;51.608;11.462;2023-05-10T14:27:10;15.60;99.90
49042;DHT22;34859;51.608;11.462;2023-05-10T14:29:36;15.60;99.90
49042;DHT22;34859;51.608;11.462;2023-05-10T14:32:02;15.50;99.90
49042;DHT22;34859;51.608;11.462;2023-05-10T14:34:28;15.50;99.90
49042;DHT22;34859;51.608;11.462;2023-05-10T14:36:54;15.50;99.90
49042;DHT22;34859;51.608;11.462;2023-05-10T14:39:20;15.60;99.90
49042;DHT22;34859;51.608;11.462;2023-05-10T14:41:46;15.60;99.90
49042;DHT22;34859;51.608;11.462;2023-05-10T14:44:12;15.60;99.90
49042;DHT22;34859;51.608;11.462;2023-05-10T14:46:38;15.50;99.90
49042;DHT22;34859;51.608;11.462;2023-05-10T14:49:04;15.70;99.90
49042;DHT22;34859;51.608;11.462;2023-05-10T14:51:30;15.80;99.90
49042;DHT22;34859;51.608;11.462;2023-05-10T14:54:05;15.90;99.90
49042;DHT22;34859;51.608;11.462;2023-05-10T14:56:31;15.90;99.90
49042;DHT22;34859;51.608;11.462;2023-05-10T14:58:57;16.00;99.90
49042;DHT22;34859;51.608;11.462;2023-05-10T15:01:22;16.10;99.90
49042;DHT22;34859;51.608;11.462;2023-05-10T15:03:48;16.10;99.90
49042;DHT22;34859;51.608;11.462;2023-05-10T15:06:14;16.00;99.90
49042;DHT22;34859;51.608;11.462;2023-05-10T15:08:40;16.00;99.90
49042;DHT22;34859;51.608;11.462;2023-05-10T15:11:07;16.10;99.90
49042;DHT22;34859;51.608;11.462;2023-05-10T15:13:32;16.10;99.90
49042;DHT22;34859;51.608;11.462;2023-05-10T15:15:58;16.10;99.90
49042;DHT22;34859;51.608;11.462;2023-05-10T15:18:24;16.20;99.90
49042;DHT22;34859;51.608;11.462;2023-05-10T15:20:49;16.20;99.90
49042;DHT22;34859;51.608;11.462;2023-05-10T15:23:18;16.20;99.90
49042;DHT22;34859;51.608;11.462;2023-05-10T15:25:44;16.30;99.90
49042;DHT22;34859;51.608;11.462;2023-05-10T15:28:09;16.10;99.90
49042;DHT22;34859;51.608;11.462;2023-05-10T15:30:36;16.10;99.90
49042;DHT22;34859;51.608;11.462;2023-05-10T15:33:02;16.10;99.90
49042;DHT22;34859;51.608;11.462;2023-05-10T15:35:28;16.00;99.90
49042;DHT22;34859;51.608;11.462;2023-05-10T15:37:53;16.00;99.90
49042;DHT22;34859;51.608;11.462;2023-05-10T15:40:19;16.00;99.90
49042;DHT22;34859;51.608;11.462;2023-05-10T15:42:45;15.90;99.90
49042;DHT22;34859;51.608;11.462;2023-05-10T15:45:10;15.90;99.90
49042;DHT22;34859;51.608;11.462;2023-05-10T15:47:36;15.90;99.90
49042;DHT22;34859;51.608;11.462;2023-05-10T15:50:05;15.90;99.90
49042;DHT22;34859;51.608;11.462;2023-05-10T15:52:30;16.00;99.90
49042;DHT22;34859;51.608;11.462;2023-05-10T15:54:56;16.00;99.90
49042;DHT22;34859;51.608;11.462;2023-05-10T15:57:22;15.90;99.90
49042;DHT22;34859;51.608;11.462;2023-05-10T15:59:48;15.90;99.90
49042;DHT22;34859;51.608;11.462;2023-05-10T16:02:13;16.00;99.90
49042;DHT22;34859;51.608;11.462;2023-05-10T16:05:00;16.00;99.90
49042;DHT22;34859;51.608;11.462;2023-05-10T16:07:27;15.90;99.90
49042;DHT22;34859;51.608;11.462;2023-05-10T16:09:53;15.90;99.90
49042;DHT22;34859;51.608;11.462;2023-05-10T16:12:19;16.00;99.90
49042;DHT22;34859;51.608;11.462;2023-05-10T16:14:44;16.10;99.90
49042;DHT22;34859;51.608;11.462;2023-05-10T16:17:10;16.20;99.90
49042;DHT22;34859;51.608;11.462;2023-05-10T16:19:37;16.30;99.90
49042;DHT22;34859;51.608;11.462;2023-05-10T16:22:03;16.30;99.90
49042;DHT22;34859;51.608;11.462;2023-05-10T16:24:29;16.30;99.90
49042;DHT22;34859;51.608;11.462;2023-05-10T16:26:55;16.20;99.90
49042;DHT22;34859;51.608;11.462;2023-05-10T16:29:21;16.20;99.90
49042;DHT22;34859;51.608;11.462;2023-05-10T16:31:48;16.20;99.90
49042;DHT22;34859;51.608;11.462;2023-05-10T16:34:13;16.10;99.90
49042;DHT22;34859;51.608;11.462;2023-05-10T16:36:39;16.00;99.90
49042;DHT22;34859;51.608;11.462;2023-05-10T16:39:04;15.90;99.90
49042;DHT22;34859;51.608;11.462;2023-05-10T16:41:33;15.80;99.90
49042;DHT22;34859;51.608;11.462;2023-05-10T16:44:00;15.80;99.90
49042;DHT22;34859;51.608;11.462;2023-05-10T16:46:27;15.80;99.90
49042;DHT22;34859;51.608;11.462;2023-05-10T16:48:53;15.90;99.90
49042;DHT22;34859;51.608;11.462;2023-05-10T16:51:18;15.80;99.90
49042;DHT22;34859;51.608;11.462;2023-05-10T16:53:44;15.80;99.90
49042;DHT22;34859;51.608;11.462;2023-05-10T16:56:10;15.80;99.90
49042;DHT22;34859;51.608;11.462;2023-05-10T16:58:36;15.80;99.90
49042;DHT22;34859;51.608;11.462;2023-05-10T17:01:02;15.80;99.90
49042;DHT22;34859;51.608;11.462;2023-05-10T17:03:28;15.90;99.90
49042;DHT22;34859;51.608;11.462;2023-05-10T17:05:53;15.90;99.90
49042;DHT22;34859;51.608;11.462;2023-05-10T17:08:20;15.90;99.90
49042;DHT22;34859;51.608;11.462;2023-05-10T17:10:46;15.90;99.90
49042;DHT22;34859;51.608;11.462;2023-05-10T17:13:12;15.90;99.90
49042;DHT22;34859;51.608;11.462;2023-05-10T17:15:38;15.90;99.90
49042;DHT22;34859;51.608;11.462;2023-05-10T17:18:03;15.90;99.90
49042;DHT22;34859;51.608;11.462;2023-05-10T17:20:29;15.90;99.90